Time;durP1;ratioP1;P1;durP2;ratioP2;P2;SDS_P1;SDS_P2;PMS_P1;PMS_P2;Temp;Humidity;BMP_temperature;BMP_pressure;BME280_temperature;BME280_humidity;BME280_pressure;Samples;Min_cycle;Max_cycle;Signal;HPM_P1;HPM_P2
2021/12/25 00:00:51;;;;;;;12.80;5.32;;;;;;;-1.96;100.00;99316.97;5036036;28;20056;-75
2021/12/25 00:03:16;;;;;;;10.82;5.03;;;;;;;-1.95;100.00;99310.91;5036240;28;20544;-75
2021/12/25 00:05:43;;;;;;;10.90;4.95;;;;;;;-1.96;100.00;99314.38;5036188;28;20060;-75
2021/12/25 00:08:08;;;;;;;12.52;5.47;;;;;;;-2.02;100.00;99312.63;5036442;28;20489;-75
2021/12/25 00:10:34;;;;;;;9.10;5.43;;;;;;;-2.00;100.00;99319.56;5035962;28;20029;-75
2021/12/25 00:12:59;;;;;;;9.95;5.07;;;;;;;-2.01;100.00;99310.88;5035857;28;20029;-75
2021/12/25 00:15:26;;;;;;;9.90;5.32;;;;;;;-2.10;100.00;99313.41;5036124;28;20444;-75
2021/12/25 00:17:51;;;;;;;10.88;5.00;;;;;;;-2.06;100.00;99313.44;5036055;28;20069;-75
2021/12/25 00:20:16;;;;;;;7.43;4.05;;;;;;;-2.05;100.00;99317.81;5035788;28;20527;-75
2021/12/25 00:22:41;;;;;;;9.30;4.40;;;;;;;-2.03;100.00;99321.31;5034371;28;20074;-75
2021/12/25 00:25:07;;;;;;;9.70;4.20;;;;;;;-2.04;100.00;99314.34;5035585;28;20021;-75
2021/12/25 00:34:55;;;;;;;6.75;3.70;;;;;;;-2.10;100.00;99331.72;5035741;28;20035;-75
2021/12/25 00:37:21;;;;;;;7.07;3.63;;;;;;;-2.16;100.00;99336.06;5034022;28;20124;-75
2021/12/25 00:39:46;;;;;;;5.63;3.10;;;;;;;-2.13;100.00;99341.31;5035638;28;20033;-77
2021/12/25 00:42:12;;;;;;;8.80;3.45;;;;;;;-2.11;100.00;99340.47;5034035;28;20021;-76
2021/12/25 00:44:38;;;;;;;7.95;3.42;;;;;;;-2.17;100.00;99339.56;5074154;23;20487;-86
2021/12/25 00:47:05;;;;;;;6.72;2.92;;;;;;;-2.27;100.00;99327.28;5046542;28;20036;-85
2021/12/25 00:49:30;;;;;;;8.48;3.00;;;;;;;-2.27;100.00;99342.97;5042837;28;20055;-86
2021/12/25 00:51:56;;;;;;;5.90;2.97;;;;;;;-2.31;100.00;99342.06;5043095;28;20029;-86
2021/12/25 00:54:22;;;;;;;5.22;2.75;;;;;;;-2.27;100.00;99342.97;5043729;28;20032;-86
2021/12/25 00:56:48;;;;;;;5.90;2.58;;;;;;;-2.28;100.00;99347.31;5043538;28;20029;-84
2021/12/25 00:59:14;;;;;;;4.97;2.67;;;;;;;-2.24;100.00;99348.19;5044966;28;20061;-85
2021/12/25 01:01:39;;;;;;;5.85;2.65;;;;;;;-2.31;100.00;99349.03;5047257;28;20028;-86
2021/12/25 01:04:05;;;;;;;6.20;2.40;;;;;;;-2.27;100.00;99350.81;5045803;28;20079;-85
2021/12/25 01:06:30;;;;;;;3.30;1.83;;;;;;;-2.30;100.00;99353.41;5045877;28;20036;-86
2021/12/25 01:08:56;;;;;;;4.72;2.13;;;;;;;-2.30;100.00;99345.56;5048413;28;20021;-85
2021/12/25 01:11:24;;;;;;;3.83;1.83;;;;;;;-2.41;100.00;99346.34;5045073;28;20047;-85
2021/12/25 01:13:57;;;;;;;5.25;1.92;;;;;;;-2.35;100.00;99356.00;5045620;28;20048;-84
2021/12/25 01:19:30;;;;;;;4.30;2.25;;;;;;;-2.33;100.00;99369.06;5046464;28;20029;-85
2021/12/25 01:22:34;;;;;;;6.68;1.73;;;;;;;-2.47;100.00;99354.13;5046205;28;20112;-85
2021/12/25 01:27:34;;;;;;;3.17;1.60;;;;;;;-2.45;100.00;99365.50;5040398;28;20021;-85
2021/12/25 01:30:06;;;;;;;7.10;1.67;;;;;;;-2.52;100.00;99366.28;5037817;28;20029;-85
2021/12/25 01:35:48;;;;;;;;;;;;;;;-2.54;100.00;99373.25;5040681;28;20036;-85
2021/12/25 01:41:43;;;;;;;6.07;1.50;;;;;;;-2.55;100.00;99368.91;5008492;28;20046;-85
2021/12/25 01:49:36;;;;;;;4.95;1.60;;;;;;;-2.74;100.00;99387.91;5044986;28;20064;-85
2021/12/25 01:52:03;;;;;;;4.93;2.47;;;;;;;-2.77;100.00;99389.59;5047230;28;20040;-85
2021/12/25 01:54:29;;;;;;;7.22;2.58;;;;;;;-2.77;100.00;99394.81;5048341;28;20399;-86
2021/12/25 01:56:54;;;;;;;5.18;1.75;;;;;;;-2.83;100.00;99388.66;5047900;28;20037;-86
2021/12/25 01:59:19;;;;;;;3.63;1.67;;;;;;;-2.91;100.00;99387.69;5048580;28;20457;-86
2021/12/25 02:01:45;;;;;;;2.92;1.70;;;;;;;-2.92;100.00;99393.81;5048829;28;20021;-85
2021/12/25 02:04:10;;;;;;;5.25;1.63;;;;;;;-2.96;100.00;99403.34;5037266;28;20037;-85
2021/12/25 02:06:36;;;;;;;2.78;1.70;;;;;;;-2.88;100.00;99406.03;5037602;28;20397;-85
2021/12/25 02:09:03;;;;;;;4.22;1.50;;;;;;;-2.94;100.00;99387.69;5038336;28;20022;-85
2021/12/25 02:11:28;;;;;;;3.92;1.73;;;;;;;-2.99;100.00;99384.16;5039806;28;20029;-83
2021/12/25 02:13:54;;;;;;;3.72;1.52;;;;;;;-3.06;100.00;99389.28;5039499;28;20037;-84
2021/12/25 02:16:24;;;;;;;2.20;1.30;;;;;;;-3.10;100.00;99384.03;5039183;28;20017;-85
2021/12/25 02:19:07;;;;;;;5.15;1.15;;;;;;;-3.09;100.00;99386.66;5039801;28;20075;-85
2021/12/25 02:21:37;;;;;;;2.83;1.40;;;;;;;-3.12;100.00;99388.38;5042226;28;20052;-85
2021/12/25 02:24:05;;;;;;;2.58;1.25;;;;;;;-3.16;100.00;99397.88;5044078;28;20030;-86
2021/12/25 02:26:31;;;;;;;2.92;1.13;;;;;;;-3.08;100.00;99395.38;5047050;28;20032;-85
2021/12/25 02:28:56;;;;;;;4.55;1.20;;;;;;;-3.17;100.00;99396.16;5045397;28;20033;-85
2021/12/25 02:31:23;;;;;;;2.47;1.10;;;;;;;-3.10;100.00;99397.09;5044213;28;20044;-85
2021/12/25 02:33:49;;;;;;;2.17;1.27;;;;;;;-3.18;100.00;99395.28;5041236;28;20033;-84
2021/12/25 02:36:16;;;;;;;2.75;1.70;;;;;;;-3.17;100.00;99396.16;5042338;28;20024;-84
2021/12/25 02:38:42;;;;;;;2.08;1.02;;;;;;;-3.18;100.00;99391.78;5039418;28;20038;-85
2021/12/25 02:41:08;;;;;;;2.10;1.13;;;;;;;-3.22;100.00;99387.38;5034138;28;20021;-85
2021/12/25 02:43:34;;;;;;;3.15;1.23;;;;;;;-3.22;100.00;99382.16;5036287;28;20426;-84
2021/12/25 02:46:03;;;;;;;2.47;1.10;;;;;;;-3.25;100.00;99376.03;5037285;28;20021;-84
2021/12/25 02:48:29;;;;;;;4.75;1.10;;;;;;;-3.23;100.00;99388.22;5037969;28;20079;-84
2021/12/25 02:50:55;;;;;;;3.63;1.15;;;;;;;-3.30;100.00;99389.91;5040064;28;20030;-85
2021/12/25 02:53:22;;;;;;;2.88;1.23;;;;;;;-3.32;100.00;99395.09;5039071;28;20537;-85
2021/12/25 02:55:50;;;;;;;2.17;1.02;;;;;;;-3.36;100.00;99401.13;5046913;28;20036;-82
2021/12/25 02:58:19;;;;;;;3.42;1.20;;;;;;;-3.38;100.00;99406.34;5043869;28;20039;-84
2021/12/25 03:00:48;;;;;;;1.73;1.05;;;;;;;-3.41;100.00;99397.59;5045081;28;20030;-85
2021/12/25 03:03:14;;;;;;;5.43;1.10;;;;;;;-3.53;100.00;99400.94;5044344;28;20022;-84
2021/12/25 03:05:40;;;;;;;2.33;1.17;;;;;;;-3.55;100.00;99389.56;5040723;28;20040;-85
2021/12/25 03:08:07;;;;;;;3.90;1.02;;;;;;;-3.58;100.00;99395.63;5041987;28;20033;-85
2021/12/25 03:10:34;;;;;;;2.15;1.13;;;;;;;-3.61;100.00;99401.69;5041881;28;20060;-85
2021/12/25 03:15:51;;;;;;;3.45;1.17;;;;;;;-3.63;100.00;99398.19;5041422;28;20036;-85
2021/12/25 03:18:26;;;;;;;2.88;1.23;;;;;;;-3.59;100.00;99415.66;5033700;28;20026;-84
2021/12/25 03:20:56;;;;;;;3.25;1.40;;;;;;;-3.62;100.00;99415.59;5037093;28;20057;-84
2021/12/25 03:23:24;;;;;;;3.58;1.50;;;;;;;-3.66;100.00;99423.38;5043566;28;20022;-85
2021/12/25 03:25:51;;;;;;;5.10;1.20;;;;;;;-3.72;100.00;99432.88;5049098;28;20093;-86
2021/12/25 03:28:21;;;;;;;3.95;1.40;;;;;;;-3.66;100.00;99432.06;5050409;28;20028;-85
2021/12/25 03:30:47;;;;;;;4.03;1.75;;;;;;;-3.70;100.00;99427.66;5049737;28;20029;-85
2021/12/25 03:33:15;;;;;;;4.18;1.63;;;;;;;-3.67;100.00;99417.28;5049737;28;20037;-86
2021/12/25 03:35:41;;;;;;;2.90;1.40;;;;;;;-3.73;100.00;99410.22;5052285;28;20025;-85
2021/12/25 03:38:09;;;;;;;4.32;2.20;;;;;;;-3.71;100.00;99416.34;5052181;28;20056;-85
2021/12/25 03:40:35;;;;;;;3.72;1.63;;;;;;;-3.67;100.00;99424.22;5049570;28;20036;-86
2021/12/25 03:43:00;;;;;;;3.45;1.73;;;;;;;-3.71;100.00;99424.16;5051193;28;20025;-86
2021/12/25 03:45:29;;;;;;;4.22;2.25;;;;;;;-3.76;100.00;99422.38;5047889;28;20379;-87
2021/12/25 03:48:05;;;;;;;9.07;2.00;;;;;;;-3.75;100.00;99424.97;5039045;28;20045;-87
2021/12/25 03:57:35;;;;;;;4.15;1.63;;;;;;;-3.76;100.00;99438.88;5023866;28;20068;-88
2021/12/25 03:58:52;;;;;;;5.90;1.83;;;;;;;-3.74;100.00;99431.97;5044504;28;20044;-87
2021/12/25 04:04:02;;;;;;;4.65;1.10;;;;;;;-3.81;100.00;99435.31;5042607;28;20056;-86
2021/12/25 04:06:27;;;;;;;4.40;1.50;;;;;;;-3.81;100.00;99430.09;5039790;28;20045;-88
2021/12/25 04:08:53;;;;;;;3.47;1.55;;;;;;;-3.84;100.00;99430.09;5042678;28;20028;-87
2021/12/25 04:11:32;;;;;;;3.08;1.40;;;;;;;-3.88;100.00;99434.34;5041158;28;20048;-87
2021/12/25 04:13:58;;;;;;;2.30;1.02;;;;;;;-3.87;100.00;99436.13;5039619;28;20045;-88
2021/12/25 04:16:26;;;;;;;2.53;1.20;;;;;;;-3.92;100.00;99437.78;5039088;28;20117;-87
2021/12/25 04:18:55;;;;;;;1.80;1.00;;;;;;;-3.94;100.00;99437.75;5039374;28;20490;-87
2021/12/25 04:21:23;;;;;;;3.08;1.10;;;;;;;-3.95;100.00;99443.84;5038922;28;20080;-87
2021/12/25 04:23:49;;;;;;;2.47;0.82;;;;;;;-4.01;100.00;99441.13;5036077;28;20076;-86
2021/12/25 04:26:14;;;;;;;2.13;1.02;;;;;;;-4.00;100.00;99444.59;5037604;28;20033;-88
2021/12/25 04:29:02;;;;;;;2.80;0.93;;;;;;;-4.06;100.00;99442.78;5036963;28;20224;-88
2021/12/25 04:31:48;;;;;;;3.70;0.95;;;;;;;-4.11;100.00;99447.91;5034241;28;20017;-86
2021/12/25 04:48:39;;;;;;;1.65;0.70;;;;;;;-4.18;100.00;99457.38;5038327;28;19919;-86
2021/12/25 05:04:13;;;;;;;;;;;;;;;-4.24;100.00;99457.25;5040470;28;20342;-85
2021/12/25 05:06:38;;;;;;;1.25;0.60;;;;;;;-4.27;100.00;99459.81;5035755;28;19909;-86
2021/12/25 05:09:04;;;;;;;1.23;0.60;;;;;;;-4.37;100.00;99457.06;5035440;28;20030;-86
2021/12/25 05:11:30;;;;;;;1.77;0.50;;;;;;;-4.37;100.00;99454.44;5037523;28;20053;-84
2021/12/25 05:13:55;;;;;;;1.33;0.40;;;;;;;-4.42;100.00;99461.31;5036179;28;20024;-87
2021/12/25 05:16:21;;;;;;;0.77;0.30;;;;;;;-4.41;100.00;99456.97;5035196;28;20075;-86
2021/12/25 05:18:51;;;;;;;2.20;0.40;;;;;;;-4.45;100.00;99468.19;5037614;28;20060;-86
2021/12/25 05:21:18;;;;;;;0.90;0.50;;;;;;;-4.56;100.00;99463.66;5038340;28;20447;-87
2021/12/25 05:23:43;;;;;;;2.50;0.50;;;;;;;-4.58;100.00;99465.34;5038216;28;20021;-86
2021/12/25 05:26:09;;;;;;;0.55;0.32;;;;;;;-4.66;100.00;99465.22;5040972;28;20033;-86
2021/12/25 05:28:46;;;;;;;1.10;0.70;;;;;;;-4.68;99.07;99472.13;5036243;28;20029;-86
2021/12/25 05:31:16;;;;;;;1.13;0.40;;;;;;;-4.76;99.32;99471.97;5039118;28;20021;-84
2021/12/25 05:33:42;;;;;;;1.20;0.50;;;;;;;-4.79;99.79;99471.06;5039815;28;20033;-87
2021/12/25 05:36:08;;;;;;;0.90;0.35;;;;;;;-4.85;99.64;99480.50;5042156;28;20048;-86
2021/12/25 05:38:39;;;;;;;2.22;0.30;;;;;;;-4.87;99.23;99476.13;5040720;28;20021;-87
2021/12/25 05:41:04;;;;;;;1.02;0.50;;;;;;;-4.92;98.98;99483.81;5040573;28;20128;-86
2021/12/25 05:43:37;;;;;;;1.38;0.45;;;;;;;-4.91;98.31;99488.19;5034381;28;20053;-85
2021/12/25 05:46:33;;;;;;;1.60;0.57;;;;;;;-5.01;98.96;99478.44;5035288;28;20068;-86
2021/12/25 05:48:58;;;;;;;0.90;0.30;;;;;;;-5.02;99.37;99487.94;5036961;28;20049;-86
2021/12/25 05:51:24;;;;;;;0.90;0.40;;;;;;;-5.03;97.70;99491.44;5038183;28;20040;-85
2021/12/25 05:53:49;;;;;;;2.65;0.65;;;;;;;-5.08;97.95;99493.06;5037720;28;20166;-85
2021/12/25 05:56:15;;;;;;;1.05;0.50;;;;;;;-5.12;97.35;99491.22;5038734;28;20029;-84
2021/12/25 05:58:41;;;;;;;2.17;0.55;;;;;;;-5.15;97.62;99497.22;5038636;28;20025;-86
2021/12/25 06:01:11;;;;;;;1.17;0.40;;;;;;;-5.19;96.79;99505.84;5040281;28;20027;-86
2021/12/25 06:03:37;;;;;;;0.85;0.40;;;;;;;-5.22;96.99;99503.16;5042041;28;20033;-85
2021/12/25 06:06:03;;;;;;;0.82;0.32;;;;;;;-5.17;98.22;99512.84;5041571;28;20409;-85
2021/12/25 06:08:28;;;;;;;1.23;0.40;;;;;;;-5.28;97.15;99512.59;5047578;28;20017;-85
2021/12/25 06:10:54;;;;;;;2.75;0.65;;;;;;;-5.28;98.39;99512.59;5046888;28;20018;-86
2021/12/25 06:13:20;;;;;;;12.70;0.57;;;;;;;-5.32;97.69;99515.97;5045351;28;20029;-85
2021/12/25 06:15:51;;;;;;;0.85;0.50;;;;;;;-5.31;98.45;99522.06;5043018;28;20136;-86
2021/12/25 06:18:17;;;;;;;2.80;0.50;;;;;;;-5.36;97.87;99527.19;5040576;28;20036;-84
2021/12/25 06:20:42;;;;;;;1.70;0.45;;;;;;;-5.37;97.74;99517.59;5035868;28;20022;-84
2021/12/25 06:23:08;;;;;;;1.75;0.47;;;;;;;-5.43;98.11;99527.84;5036834;28;20029;-85
2021/12/25 06:25:33;;;;;;;5.45;0.63;;;;;;;-5.44;98.45;99527.00;5038617;28;20017;-83
2021/12/25 06:27:59;;;;;;;1.90;0.40;;;;;;;-5.45;97.68;99525.22;5041097;28;20017;-85
2021/12/25 06:30:24;;;;;;;1.40;0.43;;;;;;;-5.45;97.55;99534.75;5048453;28;20086;-84
2021/12/25 06:32:50;;;;;;;2.78;0.60;;;;;;;-5.47;97.43;99536.44;5042971;28;20035;-85
2021/12/25 06:35:15;;;;;;;4.07;0.70;;;;;;;-5.52;97.68;99542.44;5043274;28;20022;-85
2021/12/25 06:37:44;;;;;;;1.58;0.50;;;;;;;-5.52;97.41;99546.75;5043442;28;20052;-83
2021/12/25 06:40:11;;;;;;;1.10;0.60;;;;;;;-5.58;97.07;99544.88;5044722;28;20079;-83
2021/12/25 06:42:37;;;;;;;1.60;0.50;;;;;;;-5.59;97.37;99548.31;5044036;28;20044;-83
2021/12/25 06:45:03;;;;;;;1.63;0.68;;;;;;;-5.62;97.51;99548.25;5048623;22;20405;-74
2021/12/25 06:47:28;;;;;;;1.88;0.60;;;;;;;-5.58;97.82;99555.28;5033192;28;20029;-73
2021/12/25 06:49:54;;;;;;;3.10;0.50;;;;;;;-5.61;98.53;99552.59;5033095;28;20021;-73
2021/12/25 06:52:19;;;;;;;1.85;0.52;;;;;;;-5.66;97.74;99562.03;5032016;28;20478;-73
2021/12/25 06:54:45;;;;;;;0.60;0.30;;;;;;;-5.70;98.25;99561.09;5033299;28;20048;-74
2021/12/25 06:57:10;;;;;;;5.72;0.65;;;;;;;-5.73;98.13;99561.88;5033077;28;20104;-73
2021/12/25 06:59:35;;;;;;;4.82;0.40;;;;;;;-5.70;99.38;99565.41;5031830;28;20025;-73
2021/12/25 07:02:01;;;;;;;0.77;0.35;;;;;;;-5.74;97.20;99569.63;5033308;28;20112;-73
2021/12/25 07:04:26;;;;;;;1.85;0.43;;;;;;;-5.72;96.67;99573.19;5033358;28;20108;-73
2021/12/25 07:06:52;;;;;;;2.67;0.85;;;;;;;-5.74;96.75;99574.84;5032990;28;20030;-73
2021/12/25 07:09:17;;;;;;;2.50;0.40;;;;;;;-5.72;96.37;99581.84;5032837;28;20112;-73
2021/12/25 07:11:43;;;;;;;9.85;0.75;;;;;;;-5.74;96.70;99586.13;5032963;28;20470;-73
2021/12/25 07:14:09;;;;;;;5.15;0.70;;;;;;;-5.74;96.61;99593.03;5033197;28;20025;-74
2021/12/25 07:16:35;;;;;;;2.58;0.85;;;;;;;-5.76;96.65;99595.63;5032871;28;20026;-74
2021/12/25 07:19:00;;;;;;;1.02;0.52;;;;;;;-5.77;95.70;99606.84;5032855;28;20025;-73
2021/12/25 07:21:26;;;;;;;3.78;0.75;;;;;;;-5.84;96.62;99599.72;5033197;28;20044;-73
2021/12/25 07:23:51;;;;;;;2.20;0.70;;;;;;;-5.86;96.43;99599.72;5032883;28;20033;-73
2021/12/25 07:26:17;;;;;;;2.55;0.52;;;;;;;-5.83;96.88;99609.31;5032789;28;20072;-73
2021/12/25 07:28:44;;;;;;;1.00;0.50;;;;;;;-5.81;97.47;99605.03;5031561;28;20080;-75
2021/12/25 07:31:10;;;;;;;1.15;0.52;;;;;;;-5.86;95.71;99606.63;5034522;28;20030;-74
2021/12/25 07:33:40;;;;;;;1.45;0.68;;;;;;;-5.87;95.98;99610.94;5035258;28;20413;-73
2021/12/25 07:36:08;;;;;;;3.50;0.75;;;;;;;-5.88;96.11;99614.41;5032845;28;20048;-73
2021/12/25 07:38:33;;;;;;;2.60;0.73;;;;;;;-5.96;96.26;99621.09;5031458;28;20037;-73
2021/12/25 07:40:58;;;;;;;1.98;0.63;;;;;;;-5.88;96.63;99613.50;5032729;28;20025;-73
2021/12/25 07:43:24;;;;;;;2.58;0.73;;;;;;;-6.00;96.14;99625.34;5031412;28;20067;-73
2021/12/25 07:45:51;;;;;;;1.77;0.65;;;;;;;-5.97;96.31;99627.13;5032679;28;20061;-73
2021/12/25 07:48:19;;;;;;;2.10;0.73;;;;;;;-5.98;95.09;99634.03;5032709;28;20022;-73
2021/12/25 07:50:45;;;;;;;3.92;0.80;;;;;;;-5.89;96.10;99637.75;5032571;28;20049;-73
2021/12/25 07:53:10;;;;;;;5.68;1.35;;;;;;;-5.95;95.82;99628.94;5032754;28;20030;-75
2021/12/25 07:55:36;;;;;;;5.55;1.25;;;;;;;-5.96;96.12;99636.72;5032595;28;20493;-73
2021/12/25 07:58:02;;;;;;;3.40;1.10;;;;;;;-5.95;95.61;99636.72;5032463;28;20056;-73
2021/12/25 08:00:28;;;;;;;7.10;1.17;;;;;;;-5.96;95.48;99639.31;5032477;28;20029;-73
2021/12/25 08:02:54;;;;;;;1.55;0.73;;;;;;;-5.94;95.26;99635.91;5031146;28;20021;-74
2021/12/25 08:05:20;;;;;;;2.00;0.70;;;;;;;-5.92;95.23;99648.06;5032792;28;20090;-74
2021/12/25 08:07:47;;;;;;;1.55;0.77;;;;;;;-5.92;95.60;99637.66;5034919;28;20021;-74
2021/12/25 08:10:13;;;;;;;2.85;0.73;;;;;;;-5.92;96.04;99642.84;5036151;28;20029;-74
2021/12/25 08:12:51;;;;;;;1.30;0.68;;;;;;;-5.87;95.47;99643.84;5034747;28;20107;-73
2021/12/25 08:15:18;;;;;;;1.10;0.60;;;;;;;-5.84;95.75;99651.75;5036302;28;20104;-74
2021/12/25 08:17:44;;;;;;;1.08;0.60;;;;;;;-5.86;94.46;99648.22;5035724;28;20033;-74
2021/12/25 08:20:10;;;;;;;4.55;0.75;;;;;;;-5.83;95.49;99646.59;5035884;28;20021;-73
2021/12/25 08:22:39;;;;;;;2.38;0.70;;;;;;;-5.84;96.33;99647.44;5035807;28;20025;-73
2021/12/25 08:25:05;;;;;;;0.70;0.50;;;;;;;-5.85;94.54;99644.81;5035720;28;20536;-73
2021/12/25 08:27:31;;;;;;;1.58;0.85;;;;;;;-5.84;94.96;99652.63;5035708;28;20025;-73
2021/12/25 08:29:57;;;;;;;1.95;0.80;;;;;;;-5.81;95.09;99646.63;5035606;28;20057;-73
2021/12/25 08:32:22;;;;;;;1.27;0.82;;;;;;;-5.77;94.10;99647.59;5036441;28;20124;-73
2021/12/25 08:34:47;;;;;;;2.25;0.80;;;;;;;-5.70;94.35;99659.03;5035850;28;20496;-73
2021/12/25 08:37:13;;;;;;;2.70;0.77;;;;;;;-5.63;93.43;99660.97;5035490;28;20072;-73
2021/12/25 08:39:39;;;;;;;2.22;0.98;;;;;;;-5.61;93.08;99669.69;5035441;28;20033;-73
2021/12/25 08:42:05;;;;;;;1.77;0.63;;;;;;;-5.53;92.28;99668.16;5035466;28;20028;-73
2021/12/25 08:44:37;;;;;;;2.30;0.85;;;;;;;-5.40;94.60;99665.88;5034239;28;20037;-73
2021/12/25 08:47:05;;;;;;;2.10;0.80;;;;;;;-5.41;93.36;99670.19;5035550;28;20021;-74
2021/12/25 08:49:33;;;;;;;4.38;1.20;;;;;;;-5.39;92.95;99668.53;5034208;28;20067;-74
2021/12/25 08:52:05;;;;;;;2.10;1.20;;;;;;;-5.37;92.41;99668.56;5035359;28;20371;-73
2021/12/25 08:54:31;;;;;;;4.47;1.10;;;;;;;-5.27;92.83;99672.25;5035332;28;20029;-74
2021/12/25 08:56:56;;;;;;;1.98;0.75;;;;;;;-5.34;91.79;99679.03;5034065;28;20121;-74
2021/12/25 08:59:22;;;;;;;3.50;1.20;;;;;;;-5.25;92.13;99680.09;5033831;28;20120;-73
2021/12/25 09:01:47;;;;;;;1.63;0.80;;;;;;;-5.22;92.10;99681.06;5033816;28;20478;-73
2021/12/25 09:04:13;;;;;;;2.05;0.82;;;;;;;-5.24;90.40;99680.16;5035041;28;20025;-73
2021/12/25 09:06:39;;;;;;;4.60;1.05;;;;;;;-5.21;89.25;99685.44;5035016;28;20029;-73
2021/12/25 09:09:06;;;;;;;3.63;1.20;;;;;;;-5.22;89.64;99690.59;5033738;28;20028;-73
2021/12/25 09:11:33;;;;;;;2.75;0.82;;;;;;;-5.21;89.03;99694.97;5035062;28;20049;-73
2021/12/25 09:13:58;;;;;;;2.45;1.02;;;;;;;-5.15;90.41;99695.09;5033643;28;20029;-73
2021/12/25 09:16:24;;;;;;;1.77;0.73;;;;;;;-5.23;89.51;99691.44;5035047;28;20032;-73
2021/12/25 09:18:49;;;;;;;3.55;1.10;;;;;;;-5.19;88.96;99695.88;5034624;28;20425;-73
2021/12/25 09:21:14;;;;;;;3.90;0.90;;;;;;;-5.20;88.56;99704.53;5034736;28;20025;-74
2021/12/25 09:23:40;;;;;;;4.25;1.08;;;;;;;-5.26;87.59;99702.66;5034634;28;20032;-74
2021/12/25 09:26:05;;;;;;;6.05;0.98;;;;;;;-5.24;87.94;99700.97;5034698;28;20029;-73
2021/12/25 09:28:31;;;;;;;2.33;0.77;;;;;;;-5.22;88.43;99701.88;5033353;28;20394;-74
2021/12/25 09:30:56;;;;;;;4.07;1.48;;;;;;;-5.20;85.79;99709.72;5033324;28;20025;-74
2021/12/25 09:33:22;;;;;;;3.38;0.82;;;;;;;-5.19;88.24;99708.91;5033208;28;20021;-73
2021/12/25 09:35:47;;;;;;;7.07;1.60;;;;;;;-5.19;88.13;99711.50;5034760;28;20025;-73
2021/12/25 09:38:12;;;;;;;3.15;1.08;;;;;;;-5.26;86.39;99713.06;5034562;28;20071;-73
2021/12/25 09:40:38;;;;;;;2.08;0.80;;;;;;;-5.31;86.16;99710.34;5034307;28;20029;-74
2021/12/25 09:43:03;;;;;;;4.32;1.15;;;;;;;-5.26;87.95;99707.88;5034250;28;20026;-73
2021/12/25 09:45:28;;;;;;;3.35;1.02;;;;;;;-5.33;87.14;99712.03;5034102;28;20067;-73
2021/12/25 09:47:54;;;;;;;5.03;1.40;;;;;;;-5.28;86.65;99713.03;5033209;28;20078;-73
2021/12/25 09:50:19;;;;;;;3.08;0.90;;;;;;;-5.31;86.85;99709.47;5034054;28;20497;-73
2021/12/25 09:52:44;;;;;;;2.40;0.88;;;;;;;-5.27;87.63;99712.19;5034401;28;20021;-73
2021/12/25 09:55:12;;;;;;;1.35;0.65;;;;;;;-5.29;86.60;99721.69;5034637;28;20030;-73
2021/12/25 09:57:39;;;;;;;2.97;0.88;;;;;;;-5.21;87.62;99726.19;5032684;28;20018;-73
2021/12/25 10:00:18;;;;;;;3.95;1.25;;;;;;;-5.13;87.52;99722.06;5033945;28;20095;-73
2021/12/25 10:02:53;;;;;;;4.03;1.02;;;;;;;-5.05;85.20;99725.72;5033292;28;20028;-73
2021/12/25 10:05:32;;;;;;;2.42;0.77;;;;;;;-4.98;83.57;99733.72;5033986;28;20120;-73
2021/12/25 10:08:11;;;;;;;4.22;0.88;;;;;;;-4.94;84.33;99730.31;5033889;28;20025;-73
2021/12/25 10:10:56;;;;;;;2.58;1.15;;;;;;;-4.96;83.05;99727.69;5033791;28;20537;-74
2021/12/25 10:13:32;;;;;;;2.30;0.98;;;;;;;-4.84;84.29;99734.91;5034014;28;20047;-73
2021/12/25 10:16:17;;;;;;;1.83;0.80;;;;;;;-4.76;85.94;99729.00;5033834;28;20483;-73
2021/12/25 10:18:43;;;;;;;3.30;1.42;;;;;;;-4.65;86.07;99731.88;5033939;28;20022;-73
2021/12/25 10:21:20;;;;;;;2.15;1.00;;;;;;;-4.65;82.30;99719.72;5032381;28;20021;-73
2021/12/25 10:24:02;;;;;;;3.08;0.88;;;;;;;-4.67;81.17;99724.03;5033187;28;20021;-73
2021/12/25 10:26:27;;;;;;;3.22;1.10;;;;;;;-4.76;84.22;99722.06;5033569;28;20036;-73
2021/12/25 10:28:53;;;;;;;2.30;0.90;;;;;;;-4.78;83.26;99730.69;5033189;28;20108;-73
2021/12/25 10:31:30;;;;;;;2.85;1.25;;;;;;;-4.67;84.13;99729.22;5033129;28;20036;-73
2021/12/25 10:33:56;;;;;;;2.72;1.27;;;;;;;-4.75;83.28;99731.66;5033496;28;20044;-75
2021/12/25 10:36:35;;;;;;;3.25;0.90;;;;;;;-4.77;84.67;99727.25;5032144;28;20243;-75
2021/12/25 10:39:04;;;;;;;1.85;0.80;;;;;;;-4.71;83.56;99723.06;5032361;28;20017;-73
2021/12/25 10:41:30;;;;;;;3.35;1.00;;;;;;;-4.83;83.23;99728.88;5033533;28;20064;-73
2021/12/25 10:44:17;;;;;;;2.20;0.90;;;;;;;-4.78;84.05;99735.91;5031966;28;20400;-73
2021/12/25 10:47:00;;;;;;;3.65;1.20;;;;;;;-4.69;84.26;99737.84;5033527;28;20017;-73
2021/12/25 10:49:28;;;;;;;2.83;1.13;;;;;;;-4.86;83.98;99736.59;5033262;28;20486;-74
2021/12/25 10:51:54;;;;;;;4.55;1.00;;;;;;;-4.88;84.11;99732.19;5033272;28;20029;-73
2021/12/25 10:54:34;;;;;;;3.67;1.42;;;;;;;-4.88;84.32;99737.41;5033186;28;20491;-74
2021/12/25 10:56:59;;;;;;;4.05;1.42;;;;;;;-4.91;84.04;99733.00;5033064;28;20086;-73
2021/12/25 10:59:24;;;;;;;3.08;1.25;;;;;;;-4.97;84.37;99731.13;5031756;28;20025;-73
2021/12/25 11:01:50;;;;;;;4.22;1.30;;;;;;;-4.93;83.43;99732.97;5033322;28;20470;-73
2021/12/25 11:04:26;;;;;;;4.65;1.40;;;;;;;-4.86;83.50;99731.41;5032967;28;20104;-73
2021/12/25 11:06:52;;;;;;;3.75;1.40;;;;;;;-4.72;82.61;99730.84;5033309;28;20017;-73
2021/12/25 11:09:17;;;;;;;2.80;1.08;;;;;;;-4.75;79.83;99730.78;5032958;28;20074;-73
2021/12/25 11:11:42;;;;;;;2.00;0.90;;;;;;;-4.57;82.08;99724.22;5033091;28;20067;-74
2021/12/25 11:14:13;;;;;;;4.05;1.60;;;;;;;-4.26;82.95;99724.91;5031666;28;20108;-74
2021/12/25 11:16:40;;;;;;;4.45;1.10;;;;;;;-4.14;77.50;99719.06;5032902;28;20028;-74
2021/12/25 11:19:16;;;;;;;5.68;1.08;;;;;;;-3.92;76.92;99719.53;5033152;28;20379;-74
2021/12/25 11:21:49;;;;;;;1.98;0.88;;;;;;;-3.93;75.39;99723.84;5032951;28;20067;-75
2021/12/25 11:24:21;;;;;;;1.70;0.80;;;;;;;-3.99;74.52;99715.88;5032870;28;20028;-75
2021/12/25 11:27:06;;;;;;;1.35;0.70;;;;;;;-3.94;73.44;99722.06;5032842;28;20028;-73
2021/12/25 11:29:37;;;;;;;2.47;0.82;;;;;;;-3.95;75.53;99716.84;5032817;28;20076;-74
2021/12/25 11:32:05;;;;;;;3.05;1.00;;;;;;;-3.93;73.84;99721.25;5031621;28;20032;-75
2021/12/25 11:34:31;;;;;;;3.40;1.13;;;;;;;-3.89;75.58;99726.53;5032949;28;20026;-76
2021/12/25 11:37:00;;;;;;;3.05;0.93;;;;;;;-3.67;72.62;99729.53;5031499;28;20478;-74
2021/12/25 11:39:27;;;;;;;1.23;0.70;;;;;;;-3.87;71.30;99732.66;5032734;28;20497;-74
2021/12/25 11:41:58;;;;;;;2.47;0.73;;;;;;;-3.61;74.04;99727.06;5033735;28;20025;-75
2021/12/25 11:44:41;;;;;;;2.33;0.80;;;;;;;-3.68;73.07;99728.66;5036542;28;20025;-75
2021/12/25 11:47:10;;;;;;;2.72;0.80;;;;;;;-3.64;69.68;99729.59;5036556;28;20071;-74
2021/12/25 11:49:53;;;;;;;1.02;0.70;;;;;;;-3.67;69.19;99733.03;5036445;28;20083;-75
2021/12/25 11:52:19;;;;;;;3.00;0.82;;;;;;;-3.70;69.29;99726.03;5036701;28;20087;-75
2021/12/25 11:58:01;;;;;;;3.70;0.93;;;;;;;-3.66;67.86;99715.66;5036760;28;20037;-74
2021/12/25 12:00:39;;;;;;;1.38;0.70;;;;;;;-3.75;68.53;99717.22;5028473;28;20126;-74
2021/12/25 12:03:05;;;;;;;1.00;0.50;;;;;;;-3.81;66.21;99712.75;5036244;28;20037;-75
2021/12/25 12:05:33;;;;;;;1.58;0.80;;;;;;;-3.68;68.97;99717.38;5036211;28;20075;-74
2021/12/25 12:08:03;;;;;;;2.03;0.85;;;;;;;-3.86;67.17;99711.78;5034914;28;20033;-74
2021/12/25 12:10:43;;;;;;;1.40;0.50;;;;;;;-3.87;65.57;99709.16;5036188;28;20029;-74
2021/12/25 12:13:27;;;;;;;2.72;0.70;;;;;;;-3.88;65.37;99704.78;5035997;28;20026;-74
2021/12/25 12:16:02;;;;;;;1.17;0.50;;;;;;;-4.04;67.15;99705.38;5036091;28;20021;-74
2021/12/25 12:18:29;;;;;;;2.85;0.98;;;;;;;-3.95;67.49;99709.03;5035874;28;20044;-74
2021/12/25 12:21:00;;;;;;;2.45;0.90;;;;;;;-3.89;66.86;99703.06;5035788;28;20028;-74
2021/12/25 12:23:53;;;;;;;4.05;1.05;;;;;;;-3.97;65.86;99703.75;5036129;28;20079;-74
2021/12/25 12:26:57;;;;;;;1.58;0.60;;;;;;;-4.01;69.39;99704.56;5035845;28;20025;-74
2021/12/25 12:29:47;;;;;;;1.38;0.55;;;;;;;-4.02;69.08;99715.84;5035442;28;20033;-75
2021/12/25 12:32:19;;;;;;;1.67;0.75;;;;;;;-4.10;65.77;99710.47;5034667;28;20477;-76
2021/12/25 12:34:44;;;;;;;1.65;0.50;;;;;;;-4.15;66.08;99706.91;5035756;28;20124;-75
2021/12/25 12:37:16;;;;;;;2.55;0.70;;;;;;;-4.08;66.71;99713.09;5034376;28;20100;-74
2021/12/25 12:39:59;;;;;;;1.70;0.65;;;;;;;-4.07;67.12;99709.66;5034261;28;20041;-74
2021/12/25 12:42:50;;;;;;;1.83;0.43;;;;;;;-4.08;67.04;99711.38;5035684;28;20029;-75
2021/12/25 12:45:19;;;;;;;1.40;0.50;;;;;;;-4.07;66.63;99701.84;5047174;23;20044;-77